createdAt,value
2018-06-03T00:01:30.189Z,16.40
2018-06-03T00:06:13.355Z,16.40
2018-06-03T00:10:56.471Z,16.40
2018-06-03T00:15:40.427Z,16.50
2018-06-03T00:20:36.135Z,16.60
2018-06-03T00:25:19.302Z,16.60
2018-06-03T00:30:03.516Z,16.70
2018-06-03T00:34:46.930Z,16.70
2018-06-03T00:39:31.334Z,16.80
2018-06-03T00:44:14.744Z,16.90
2018-06-03T00:48:58.150Z,17.00
2018-06-03T00:53:42.390Z,17.00
2018-06-03T00:58:25.738Z,16.90
2018-06-03T01:03:09.107Z,16.90
2018-06-03T01:07:52.440Z,17.00
2018-06-03T01:12:36.872Z,17.00
2018-06-03T01:17:21.022Z,17.00
2018-06-03T01:22:04.490Z,16.90
2018-06-03T01:26:48.755Z,16.90
2018-06-03T01:31:32.299Z,16.90
2018-06-03T01:36:16.420Z,16.90
2018-06-03T01:40:59.880Z,16.90
2018-06-03T01:45:43.345Z,16.90
2018-06-03T01:50:26.753Z,16.90
2018-06-03T01:55:10.175Z,16.80
2018-06-03T01:59:53.567Z,16.80
2018-06-03T02:04:37.889Z,16.80
2018-06-03T02:09:21.229Z,16.80
2018-06-03T02:14:04.593Z,16.80
2018-06-03T02:18:47.978Z,16.80
2018-06-03T02:23:31.317Z,16.80
2018-06-03T02:28:14.642Z,16.80
2018-06-03T02:32:58.823Z,16.80
2018-06-03T02:37:42.216Z,16.70
2018-06-03T02:42:26.351Z,16.80
2018-06-03T02:47:09.712Z,16.80
2018-06-03T02:51:53.044Z,16.80
2018-06-03T02:56:36.467Z,16.70
2018-06-03T03:01:19.863Z,16.70
2018-06-03T03:06:03.179Z,16.70
2018-06-03T03:10:47.327Z,16.70
2018-06-03T03:15:31.480Z,16.80
2018-06-03T03:20:14.814Z,16.80
2018-06-03T03:24:58.163Z,16.70
2018-06-03T03:29:41.510Z,16.80
2018-06-03T03:34:24.825Z,16.90
2018-06-03T03:39:08.284Z,16.90
2018-06-03T03:43:51.620Z,17.00
2018-06-03T03:48:35.011Z,17.10
2018-06-03T03:53:18.331Z,17.10
2018-06-03T03:58:01.720Z,17.10
2018-06-03T04:02:45.107Z,17.10
2018-06-03T04:07:28.538Z,17.10
2018-06-03T04:12:11.967Z,17.30
2018-06-03T04:16:55.519Z,17.40
2018-06-03T04:21:38.991Z,17.60
2018-06-03T04:26:22.370Z,17.80
2018-06-03T04:31:05.958Z,18.10
2018-06-03T04:35:50.204Z,18.20
2018-06-03T04:40:33.634Z,18.20
2018-06-03T04:45:16.982Z,18.10
2018-06-03T04:50:00.370Z,18.10
2018-06-03T04:54:43.723Z,18.10
2018-06-03T04:59:27.162Z,18.20
2018-06-03T05:04:11.284Z,18.40
2018-06-03T05:08:54.719Z,18.40
2018-06-03T05:13:38.166Z,18.50
2018-06-03T05:18:21.612Z,18.70
2018-06-03T05:23:05.125Z,19.40
2018-06-03T05:27:48.691Z,19.40
2018-06-03T05:32:32.150Z,19.80
2018-06-03T05:37:15.685Z,19.60
2018-06-03T05:41:59.154Z,19.90
2018-06-03T05:52:03.643Z,19.50
2018-06-03T05:57:10.477Z,20.00
2018-06-03T06:02:00.505Z,21.00
2018-06-03T06:06:43.970Z,21.40
2018-06-03T06:11:27.421Z,20.70
2018-06-03T06:16:10.795Z,20.00
2018-06-03T06:20:54.267Z,19.80
2018-06-03T06:25:37.695Z,19.80
2018-06-03T06:30:23.648Z,19.70
2018-06-03T06:35:07.155Z,19.90
2018-06-03T06:39:59.832Z,20.30
2018-06-03T06:44:58.928Z,20.30
2018-06-03T06:49:42.277Z,20.60
2018-06-03T06:54:25.747Z,20.60
2018-06-03T06:59:09.196Z,20.00
2018-06-03T07:03:53.299Z,20.10
2018-06-03T07:08:36.696Z,20.10
2018-06-03T07:13:20.055Z,20.40
2018-06-03T07:18:03.399Z,20.60
2018-06-03T07:22:53.145Z,20.90
2018-06-03T07:27:36.565Z,21.00
2018-06-03T07:37:48.314Z,21.00
2018-06-03T07:42:31.832Z,21.40
2018-06-03T07:47:29.367Z,21.60
2018-06-03T07:52:13.206Z,21.90
2018-06-03T07:57:07.563Z,22.00
2018-06-03T08:02:05.082Z,22.00
2018-06-03T08:06:50.320Z,22.20
2018-06-03T08:11:38.093Z,22.10
2018-06-03T08:16:24.061Z,22.20
2018-06-03T08:21:07.588Z,21.80
2018-06-03T08:31:20.907Z,22.10
2018-06-03T08:47:03.205Z,21.40
2018-06-03T08:51:46.671Z,21.00
2018-06-03T08:56:30.924Z,20.60
2018-06-03T09:01:15.232Z,20.70
2018-06-03T09:05:58.605Z,20.60
2018-06-03T09:10:41.961Z,21.10
2018-06-03T09:15:25.392Z,21.80
2018-06-03T09:20:08.759Z,22.10
2018-06-03T09:24:52.867Z,22.50
2018-06-03T09:29:36.238Z,22.50
2018-06-03T09:34:19.630Z,22.50
2018-06-03T09:39:02.982Z,22.70
2018-06-03T09:43:46.321Z,22.30
2018-06-03T09:48:29.688Z,22.20
2018-06-03T09:53:13.082Z,22.40
2018-06-03T09:57:56.471Z,22.80
2018-06-03T10:02:39.847Z,23.00
2018-06-03T10:07:23.239Z,23.60
2018-06-03T10:12:06.603Z,23.60
2018-06-03T10:16:50.894Z,24.10
2018-06-03T10:21:35.052Z,24.40
2018-06-03T10:26:18.468Z,24.30
2018-06-03T10:31:01.785Z,24.80
2018-06-03T10:35:45.145Z,25.20
2018-06-03T10:40:28.563Z,26.00
2018-06-03T10:45:12.746Z,26.60
2018-06-03T10:49:56.166Z,26.50
2018-06-03T10:54:39.615Z,26.70
2018-06-03T10:59:23.177Z,26.90
2018-06-03T11:04:06.586Z,26.70
2018-06-03T11:08:49.930Z,26.50
2018-06-03T11:13:34.150Z,26.40
2018-06-03T11:18:17.495Z,27.30
2018-06-03T11:23:01.151Z,28.00
2018-06-03T11:27:50.142Z,28.50
2018-06-03T11:32:33.536Z,28.30
2018-06-03T11:37:16.913Z,28.30
2018-06-03T11:42:00.243Z,28.10
2018-06-03T11:46:46.492Z,28.60
2018-06-03T11:51:30.020Z,28.40
2018-06-03T11:56:13.326Z,27.70
2018-06-03T12:00:57.540Z,27.30
2018-06-03T12:05:40.913Z,27.20
2018-06-03T12:10:30.903Z,27.30
2018-06-03T12:15:14.420Z,27.50
2018-06-03T12:19:58.202Z,27.40
2018-06-03T12:24:43.400Z,27.70
2018-06-03T12:34:17.447Z,27.00
2018-06-03T12:39:01.049Z,26.90
2018-06-03T12:43:45.296Z,27.90
2018-06-03T12:48:28.791Z,27.80
2018-06-03T12:53:15.854Z,27.40
2018-06-03T12:57:59.250Z,27.40
2018-06-03T13:02:42.592Z,28.60
2018-06-03T13:07:25.912Z,28.70
2018-06-03T13:12:09.267Z,28.90
2018-06-03T13:16:53.494Z,27.90
2018-06-03T13:21:36.936Z,27.90
2018-06-03T13:26:20.459Z,29.30
2018-06-03T13:31:03.788Z,29.30
2018-06-03T13:35:48.069Z,30.00
2018-06-03T13:40:31.475Z,30.00
2018-06-03T13:45:14.885Z,30.30
2018-06-03T13:49:58.343Z,31.20
2018-06-03T13:54:41.749Z,31.10
2018-06-03T13:59:25.227Z,31.30
2018-06-03T14:04:09.320Z,31.20
2018-06-03T14:08:52.707Z,31.20
2018-06-03T14:13:36.097Z,31.00
2018-06-03T14:18:19.494Z,30.50
2018-06-03T14:23:02.803Z,29.50
2018-06-03T14:27:46.205Z,28.50
2018-06-03T14:32:30.382Z,29.10
2018-06-03T14:37:14.069Z,29.00
2018-06-03T14:41:57.401Z,29.70
2018-06-03T14:46:40.771Z,30.30
2018-06-03T14:51:24.105Z,31.30
2018-06-03T14:56:07.453Z,31.40
2018-06-03T15:00:50.754Z,31.40
2018-06-03T15:05:34.381Z,31.10
2018-06-03T15:10:18.542Z,30.20
2018-06-03T15:15:06.742Z,30.20
2018-06-03T15:19:52.383Z,30.10
2018-06-03T15:24:35.913Z,30.50
2018-06-03T15:29:20.350Z,30.60
2018-06-03T15:34:04.624Z,30.90
2018-06-03T15:38:48.017Z,31.00
2018-06-03T15:43:31.377Z,30.90
2018-06-03T15:48:14.733Z,31.40
2018-06-03T15:52:58.144Z,31.50
2018-06-03T15:57:44.138Z,31.50
2018-06-03T16:02:29.380Z,30.60
2018-06-03T16:07:12.754Z,30.60
2018-06-03T16:11:56.092Z,31.40
2018-06-03T16:16:39.436Z,32.00
2018-06-03T16:21:22.777Z,32.20
2018-06-03T16:26:09.065Z,32.00
2018-06-03T16:30:52.379Z,32.00
2018-06-03T16:35:35.707Z,32.10
2018-06-03T16:40:19.057Z,31.70
2018-06-03T16:45:02.327Z,31.80
2018-06-03T16:49:45.685Z,31.70
2018-06-03T16:54:29.838Z,31.50
2018-06-03T16:59:13.158Z,31.40
2018-06-03T17:03:56.531Z,31.80
2018-06-03T17:08:40.683Z,31.30
2018-06-03T17:13:24.044Z,31.30
2018-06-03T17:18:08.153Z,31.00
2018-06-03T17:22:53.326Z,31.00
2018-06-03T17:27:37.795Z,30.10
2018-06-03T17:32:21.219Z,29.90
2018-06-03T17:37:04.597Z,29.50
2018-06-03T17:41:48.741Z,28.70
2018-06-03T17:46:32.114Z,28.70
2018-06-03T17:51:16.392Z,26.40
2018-06-03T17:56:00.285Z,26.40
2018-06-03T18:00:47.531Z,25.40
2018-06-03T18:05:32.144Z,24.50
2018-06-03T18:10:18.874Z,23.80
2018-06-03T18:15:03.387Z,23.20
2018-06-03T18:19:46.813Z,23.00
2018-06-03T18:24:30.387Z,22.60
2018-06-03T18:29:17.113Z,22.10
2018-06-03T18:34:00.607Z,21.80
2018-06-03T18:38:44.038Z,21.40
2018-06-03T18:44:16.079Z,21.10
2018-06-03T18:49:00.788Z,20.80
2018-06-03T18:53:45.452Z,20.50
2018-06-03T18:58:30.440Z,20.20
2018-06-03T19:03:15.058Z,19.80
2018-06-03T19:07:59.716Z,19.60
2018-06-03T19:12:44.620Z,19.30
2018-06-03T19:17:29.176Z,19.10
2018-06-03T19:22:14.190Z,18.80
2018-06-03T19:26:58.847Z,18.70
2018-06-03T19:31:43.931Z,18.50
2018-06-03T19:36:29.190Z,18.30
2018-06-03T19:41:22.116Z,18.10
2018-06-03T19:46:08.624Z,17.90
2018-06-03T19:50:54.225Z,17.80
2018-06-03T20:00:42.267Z,17.40
2018-06-03T20:05:29.802Z,17.30
2018-06-03T20:10:15.038Z,17.20
2018-06-03T20:15:01.167Z,17.10
2018-06-03T20:19:46.536Z,17.00
2018-06-03T20:24:32.383Z,16.90
2018-06-03T20:29:17.853Z,16.80
2018-06-03T20:34:03.044Z,17.00
2018-06-03T20:38:48.437Z,17.20
2018-06-03T20:43:33.777Z,17.30
2018-06-03T20:48:19.157Z,17.30
2018-06-03T20:53:03.982Z,17.20
2018-06-03T20:57:49.300Z,17.30
2018-06-03T21:02:34.457Z,17.20
2018-06-03T21:07:20.240Z,17.10
2018-06-03T21:12:05.430Z,17.20
2018-06-03T21:16:50.729Z,17.40
2018-06-03T21:21:35.746Z,17.40
2018-06-03T21:26:21.612Z,17.30
2018-06-03T21:31:07.017Z,17.20
2018-06-03T21:35:52.401Z,17.10
2018-06-03T21:40:37.588Z,17.30
2018-06-03T21:45:23.359Z,17.40
2018-06-03T21:50:08.554Z,17.50
2018-06-03T21:54:53.325Z,17.40
2018-06-03T21:59:38.538Z,17.40
2018-06-03T22:04:23.501Z,17.50
2018-06-03T22:09:08.606Z,17.50
2018-06-03T22:13:53.204Z,17.50
2018-06-03T22:18:38.052Z,17.40
2018-06-03T22:23:22.728Z,17.30
2018-06-03T22:28:07.472Z,17.20
2018-06-03T22:32:52.530Z,17.00
2018-06-03T22:37:37.828Z,17.00
2018-06-03T22:42:22.818Z,17.00
2018-06-03T22:47:08.887Z,16.90
2018-06-03T22:51:53.436Z,16.70
2018-06-03T22:56:48.918Z,16.60
2018-06-03T23:01:33.684Z,16.70
2018-06-03T23:06:18.094Z,16.80
2018-06-03T23:11:02.557Z,16.90
2018-06-03T23:15:47.033Z,16.90
2018-06-03T23:20:31.746Z,16.80
2018-06-03T23:25:16.192Z,16.70
2018-06-03T23:30:00.807Z,16.60
2018-06-03T23:34:45.212Z,16.50
2018-06-03T23:39:29.968Z,16.50
2018-06-03T23:44:14.440Z,16.60
2018-06-03T23:48:58.943Z,16.50
2018-06-03T23:53:43.499Z,16.60
2018-06-03T23:58:27.994Z,16.60
